Impacts TAF Board INFO
FOR SITUATIONAL AWARENESS. NOT TO BE USED FOR FLIGHT PLANNING PURPOSES.
IDs:

KSEA - Seattle-Tacoma Intl, WA, US

Issued at 2103 UTC 16 Oct 2017
Updated at 2159 UTC 16 Oct 2017
Potential Impact None Slight Moderate High
Time2153Z 16/22Z 16/23Z 17/00Z 17/01Z 17/02Z 17/03Z 17/04Z 17/05Z 17/06Z 17/07Z 17/08Z 17/09Z 17/10Z>>
Type OBS PRVL PRVL PRVL PRVL PRVL PRVL PRVL PRVL PRVL PRVL PRVL PRVL PRVL
VIS 10 >6 >6 >6 >6 >6 >6 >6 >6 >6 >6 >6 >6 >6
CIG -- 200 120 120 120 120 120 120 120 120 120 120 30 30
Cover SCT BKN OVC OVC OVC OVC OVC OVC OVC OVC OVC OVC OVC OVC
FltCat VFR VFR VFR VFR VFR VFR VFR VFR VFR VFR VFR VFR MVFR MVFR
WX -- -- -- -- -- -- -- -- -- -- -- -- VCSH VCSH
WDir 200 210 190 190 190 190 190 190 190 190 190 190 200 200
WSpd 16 10 10 10 10 10 10 10 10 10 10 10 12 12
WGst -- 18 18 18 18 18 18 18 18 18 18 18 20 20

Raw TAF
KSEA 162103Z 1621/1724 21010G18KT P6SM FEW020 SCT120 BKN200
  FM162300 19010G18KT P6SM SCT030 BKN120 OVC150
  FM170900 20012G20KT P6SM VCSH BKN030 OVC045
  FM171200 20013G22KT P6SM VCSH BKN020 OVC030
  FM171600 23014G24KT P6SM -RA OVC020


Raw METAR
KSEA 162153Z 20016KT 10SM FEW040 FEW120 SCT250 16/09 A3017 RMK AO2 SLP222 T01560089 $
KSEA 162053Z 23015G20KT 10SM FEW020 FEW120 FEW200 16/09 A3018 RMK AO2 SLP227 T01560089 56015 $
KSEA 161953Z 20009KT 10SM FEW010 FEW200 15/08 A3019 RMK AO2 SLP230 T01500083 $
KSEA 161853Z 17013G18KT 10SM FEW008 FEW150 14/08 A3021 RMK AO2 SLP235 T01390083 $

METAR Board
Radar Display
Forecast Discussion

FOR SITUATIONAL AWARENESS. NOT TO BE USED FOR FLIGHT PLANNING PURPOSES.